Aeroporto :
LOGIN :

Iscrizione | Disclaimer

   EN    FR    IT 

 










Sommario :    VFR   VFR Marginale   IFR   IFR Intensivo   IFR Molto Intensivo
Visibilità : 
Base nubi : 
>= 8 km
>= 3000ft
5 / 8 km
1000 / 3000 ft
1500m / 5 km
500 / 1000 ft
800 / 1500m
200 / 500 ft
< 800m
< 200 ft
Simboli :   Temporali  Nebbia  Neve Forte  Precipitazioni Forti  Vento > 20 kt
SIGMETs :   Varie  Temporali  Ghiacco  Turbolenza  Onda orograficha  Ceneri Vulcaniche






- Altitudine del aeroporto : 465 ft
- Codice IATA : LEJ


EDDP - Leipzig Halle

ULTIMO METAR :
  • 090550Z 06004KT 7000 OVC012 M00/M01 Q1003 TEMPO 4000 -SN BKN008

METARs OBSOLETI :
  • 090520Z 07004KT 6000 OVC012 M00/M01 Q1003 TEMPO 4000 -SN BKN008
  • 090450Z 08005KT 6000 OVC012 M00/M01 Q1003 TEMPO 4000 -SN BKN008
  • 090420Z 09006KT 6000 OVC012 M00/M01 Q1003 TEMPO 4000 -SN BKN008
  • 090350Z 09007KT 6000 OVC012 M00/M01 Q1003 TEMPO 4000 -SN BKN008
  • 090320Z 07007KT 6000 OVC012 M00/M01 Q1003 TEMPO 4000 -SN BKN008

TAF TAF EDDP
Valido dal 09 a 06 ore il 10 a 06 ore UTC


090500Z 0906/1006 07005KT 6000 SCT007 OVC015
BECMG 0906/0908 VRB03KT 3500 BR BKN007
TEMPO 0908/0913 1400 BR BKN003
BECMG 0913/0917 24005KT 6000 BKN015



MetMap, La meteo Aeronautica in un colpo d'occhio ! - Copyright ORBIFLY Dicembre 2007 - Disclaimer

ORBIFLY MET'MAP TEAM :

Programmazione e sviluppo : Alexandra Zaïnal
Concezione : Baudouin d'Aumeries
Aiuto per la programmazione : Marc-Olivier Méhu
Supporto tecnico e logistico : Manuel Goepfert
Aiuto per la traduzione : Arnaldo La Scala

Contatto : metmap@orbifly.com




FONTI E CREDITI :

   NOAA